PSGSR SBCT-SBBH
Flight info
| Callsign | PSGSR |
|---|---|
| Flight time | N/A |
| Altitude | 25000 |
| Route | XONUG UZ121 BUXUK DCT UTGER UZ23 KIBAP |
| Aircraft | PC12/L-SDFGRWY/S |
Departure
| Time | N/A |
|---|---|
| Airport | Curitiba-Afonso Pena International Airport (SBCT) |
Arrival
| Time | 2026-04-22 02:22 |
|---|---|
| Airport | Pampulha - Carlos Drummond de Andrade Airport (SBBH) |
| Time | Latitude | Longitude | Altitude | Speed | Heading |
|---|---|---|---|---|---|
| 2026-04-22 01:45 | -21.83174 | -45.43297 | 25113 ft | 294 kts | 37° |
| 2026-04-22 01:46 | -21.81578 | -45.41927 | 25107 ft | 294 kts | 37° |
| 2026-04-22 01:46 | -21.79980 | -45.40556 | 25106 ft | 294 kts | 37° |
| 2026-04-22 01:46 | -21.78383 | -45.39187 | 25109 ft | 294 kts | 37° |
| 2026-04-22 01:46 | -21.76787 | -45.37818 | 25112 ft | 294 kts | 37° |
| 2026-04-22 01:47 | -21.75190 | -45.36449 | 25111 ft | 293 kts | 37° |
| 2026-04-22 01:47 | -21.73595 | -45.35082 | 25107 ft | 293 kts | 37° |
| 2026-04-22 01:47 | -21.71998 | -45.33714 | 25113 ft | 293 kts | 37° |
| 2026-04-22 01:47 | -21.70402 | -45.32348 | 25110 ft | 293 kts | 37° |
| 2026-04-22 01:48 | -21.68807 | -45.30982 | 25113 ft | 293 kts | 37° |
| 2026-04-22 01:48 | -21.67211 | -45.29616 | 25111 ft | 293 kts | 37° |
| 2026-04-22 01:48 | -21.65616 | -45.28251 | 25109 ft | 293 kts | 37° |
| 2026-04-22 01:48 | -21.64017 | -45.26884 | 25104 ft | 293 kts | 37° |
| 2026-04-22 01:49 | -21.62421 | -45.25519 | 25107 ft | 293 kts | 37° |
| 2026-04-22 01:49 | -21.60826 | -45.24156 | 25110 ft | 293 kts | 37° |
| 2026-04-22 01:49 | -21.59228 | -45.22790 | 25106 ft | 293 kts | 37° |
| 2026-04-22 01:49 | -21.57632 | -45.21426 | 25103 ft | 293 kts | 37° |
| 2026-04-22 01:50 | -21.56055 | -45.20079 | 25106 ft | 293 kts | 37° |
| 2026-04-22 01:50 | -21.54435 | -45.18695 | 25106 ft | 294 kts | 37° |
| 2026-04-22 01:50 | -21.52836 | -45.17331 | 25102 ft | 294 kts | 37° |
| 2026-04-22 01:50 | -21.51258 | -45.15984 | 25104 ft | 294 kts | 37° |
| 2026-04-22 01:51 | -21.49636 | -45.14600 | 25102 ft | 294 kts | 37° |
| 2026-04-22 01:51 | -21.48037 | -45.13236 | 25100 ft | 294 kts | 37° |
| 2026-04-22 01:51 | -21.46457 | -45.11889 | 25108 ft | 294 kts | 37° |
| 2026-04-22 01:51 | -21.44856 | -45.10524 | 25103 ft | 294 kts | 37° |
| 2026-04-22 01:52 | -21.43255 | -45.09160 | 25106 ft | 294 kts | 37° |
| 2026-04-22 01:52 | -21.41656 | -45.07798 | 25111 ft | 294 kts | 37° |
| 2026-04-22 01:52 | -21.40056 | -45.06436 | 25106 ft | 294 kts | 37° |
| 2026-04-22 01:52 | -21.38456 | -45.05073 | 25105 ft | 294 kts | 37° |
| 2026-04-22 01:53 | -21.36855 | -45.03711 | 25104 ft | 294 kts | 37° |
| 2026-04-22 01:53 | -21.35773 | -45.02789 | 25101 ft | 294 kts | 37° |
| 2026-04-22 01:53 | -21.34173 | -45.01428 | 25100 ft | 294 kts | 37° |
| 2026-04-22 01:53 | -21.32569 | -45.00064 | 25105 ft | 294 kts | 37° |
| 2026-04-22 01:54 | -21.30965 | -44.98700 | 25107 ft | 294 kts | 37° |
| 2026-04-22 01:54 | -21.29363 | -44.97338 | 25109 ft | 294 kts | 37° |
| 2026-04-22 01:54 | -21.27760 | -44.95976 | 25110 ft | 294 kts | 37° |
| 2026-04-22 01:54 | -21.26158 | -44.94615 | 25106 ft | 294 kts | 37° |
| 2026-04-22 01:55 | -21.24556 | -44.93255 | 25106 ft | 294 kts | 37° |
| 2026-04-22 01:55 | -21.22954 | -44.91895 | 25110 ft | 294 kts | 37° |
| 2026-04-22 01:55 | -21.21373 | -44.90552 | 25108 ft | 294 kts | 37° |
| 2026-04-22 01:55 | -21.19771 | -44.89193 | 25105 ft | 294 kts | 37° |
| 2026-04-22 01:56 | -21.18169 | -44.87834 | 25107 ft | 294 kts | 37° |
| 2026-04-22 01:56 | -21.16568 | -44.86476 | 25106 ft | 294 kts | 37° |
| 2026-04-22 01:56 | -21.14966 | -44.85117 | 25103 ft | 294 kts | 37° |
| 2026-04-22 01:56 | -21.13364 | -44.83759 | 25110 ft | 293 kts | 37° |
| 2026-04-22 01:57 | -21.11764 | -44.82404 | 25110 ft | 293 kts | 37° |
| 2026-04-22 01:57 | -21.10163 | -44.81047 | 25109 ft | 293 kts | 37° |
| 2026-04-22 01:57 | -21.08563 | -44.79691 | 25106 ft | 293 kts | 37° |
| 2026-04-22 01:57 | -21.06963 | -44.78336 | 25106 ft | 293 kts | 37° |
| 2026-04-22 01:58 | -21.05361 | -44.76981 | 25109 ft | 293 kts | 37° |
| 2026-04-22 01:58 | -21.03709 | -44.75716 | 25108 ft | 292 kts | 34° |
| 2026-04-22 01:58 | -21.02058 | -44.74450 | 25107 ft | 292 kts | 34° |
| 2026-04-22 01:58 | -21.00410 | -44.73178 | 25107 ft | 292 kts | 34° |
| 2026-04-22 01:59 | -20.98756 | -44.71912 | 25107 ft | 292 kts | 34° |
| 2026-04-22 01:59 | -20.97098 | -44.70649 | 25109 ft | 292 kts | 34° |
| 2026-04-22 01:59 | -20.95444 | -44.69386 | 25112 ft | 292 kts | 34° |
| 2026-04-22 01:59 | -20.93789 | -44.68121 | 25109 ft | 292 kts | 34° |
| 2026-04-22 02:00 | -20.92135 | -44.66857 | 25111 ft | 292 kts | 34° |
| 2026-04-22 02:00 | -20.90478 | -44.65592 | 25112 ft | 292 kts | 34° |
| 2026-04-22 02:00 | -20.88823 | -44.64329 | 25111 ft | 292 kts | 34° |
| 2026-04-22 02:00 | -20.87167 | -44.63066 | 25111 ft | 292 kts | 34° |
| 2026-04-22 02:01 | -20.85513 | -44.61804 | 25111 ft | 292 kts | 34° |
| 2026-04-22 02:01 | -20.83857 | -44.60541 | 25112 ft | 292 kts | 34° |
| 2026-04-22 02:01 | -20.82202 | -44.59279 | 25109 ft | 292 kts | 34° |
| 2026-04-22 02:01 | -20.80548 | -44.58019 | 25111 ft | 292 kts | 34° |
| 2026-04-22 02:02 | -20.78878 | -44.56790 | 25110 ft | 290 kts | 30° |
| 2026-04-22 02:02 | -20.77161 | -44.55663 | 25108 ft | 290 kts | 30° |
| 2026-04-22 02:02 | -20.75440 | -44.54519 | 25113 ft | 291 kts | 30° |
| 2026-04-22 02:02 | -20.73727 | -44.53376 | 25111 ft | 291 kts | 30° |
| 2026-04-22 02:03 | -20.72008 | -44.52236 | 25114 ft | 291 kts | 30° |
| 2026-04-22 02:03 | -20.70292 | -44.51100 | 25109 ft | 290 kts | 30° |
| 2026-04-22 02:03 | -20.68574 | -44.49963 | 25114 ft | 290 kts | 30° |
| 2026-04-22 02:03 | -20.66862 | -44.48827 | 25115 ft | 290 kts | 30° |
| 2026-04-22 02:04 | -20.63473 | -44.46491 | 25109 ft | 289 kts | 39° |
| 2026-04-22 02:04 | -20.61776 | -44.45405 | 25114 ft | 284 kts | 18° |
| 2026-04-22 02:04 | -20.59875 | -44.44822 | 24927 ft | 284 kts | 12° |
| 2026-04-22 02:05 | -20.57979 | -44.44202 | 24322 ft | 286 kts | 18° |
| 2026-04-22 02:05 | -20.56136 | -44.43378 | 23741 ft | 288 kts | 22° |
| 2026-04-22 02:05 | -20.54316 | -44.42490 | 23055 ft | 287 kts | 22° |
| 2026-04-22 02:05 | -20.52483 | -44.41658 | 22374 ft | 286 kts | 21° |
| 2026-04-22 02:06 | -20.50643 | -44.40861 | 21699 ft | 284 kts | 21° |
| 2026-04-22 02:06 | -20.48820 | -44.40058 | 21052 ft | 283 kts | 22° |
| 2026-04-22 02:06 | -20.47009 | -44.39246 | 20412 ft | 282 kts | 22° |
| 2026-04-22 02:06 | -20.45211 | -44.38441 | 19790 ft | 280 kts | 22° |
| 2026-04-22 02:07 | -20.43414 | -44.37643 | 19178 ft | 278 kts | 23° |
| 2026-04-22 02:07 | -20.41630 | -44.36851 | 18580 ft | 277 kts | 23° |
| 2026-04-22 02:07 | -20.39883 | -44.36074 | 17943 ft | 275 kts | 23° |
| 2026-04-22 02:07 | -20.38121 | -44.35290 | 17255 ft | 273 kts | 23° |
| 2026-04-22 02:08 | -20.36373 | -44.34512 | 16594 ft | 272 kts | 23° |
| 2026-04-22 02:08 | -20.34635 | -44.33742 | 15948 ft | 269 kts | 22° |
| 2026-04-22 02:08 | -20.32875 | -44.33096 | 15383 ft | 265 kts | 18° |
| 2026-04-22 02:08 | -20.31131 | -44.32502 | 14823 ft | 261 kts | 19° |
| 2026-04-22 02:09 | -20.29427 | -44.31871 | 14280 ft | 258 kts | 21° |
| 2026-04-22 02:09 | -20.27782 | -44.31240 | 13730 ft | 255 kts | 21° |
| 2026-04-22 02:09 | -20.26117 | -44.30612 | 13118 ft | 253 kts | 20° |
| 2026-04-22 02:09 | -20.24466 | -44.29997 | 12532 ft | 250 kts | 20° |
| 2026-04-22 02:10 | -20.22830 | -44.29387 | 11947 ft | 248 kts | 19° |
| 2026-04-22 02:10 | -20.21214 | -44.28782 | 11376 ft | 245 kts | 19° |
| 2026-04-22 02:10 | -20.19620 | -44.28185 | 10811 ft | 241 kts | 19° |
| 2026-04-22 02:10 | -20.18058 | -44.27601 | 10265 ft | 236 kts | 18° |
| 2026-04-22 02:11 | -20.16559 | -44.27040 | 9912 ft | 222 kts | 18° |
| 2026-04-22 02:11 | -20.15132 | -44.26506 | 9524 ft | 212 kts | 18° |
| 2026-04-22 02:11 | -20.13768 | -44.25997 | 9137 ft | 204 kts | 18° |
| 2026-04-22 02:11 | -20.12445 | -44.25504 | 8763 ft | 199 kts | 18° |
| 2026-04-22 02:12 | -20.11155 | -44.25022 | 8390 ft | 194 kts | 18° |
| 2026-04-22 02:12 | -20.09891 | -44.24550 | 8018 ft | 191 kts | 18° |
| 2026-04-22 02:12 | -20.08655 | -44.24089 | 7740 ft | 188 kts | 18° |
| 2026-04-22 02:12 | -20.07329 | -44.23600 | 7587 ft | 214 kts | 18° |
| 2026-04-22 02:13 | -20.05865 | -44.23053 | 7429 ft | 229 kts | 19° |
| 2026-04-22 02:13 | -20.04337 | -44.22479 | 7268 ft | 237 kts | 19° |
| 2026-04-22 02:13 | -20.02768 | -44.21892 | 7122 ft | 240 kts | 19° |
| 2026-04-22 02:13 | -20.01202 | -44.21309 | 7119 ft | 237 kts | 19° |
| 2026-04-22 02:14 | -19.99655 | -44.20733 | 7118 ft | 235 kts | 19° |
| 2026-04-22 02:14 | -19.98117 | -44.20160 | 7124 ft | 233 kts | 19° |
| 2026-04-22 02:14 | -19.96587 | -44.19590 | 7126 ft | 233 kts | 19° |
| 2026-04-22 02:14 | -19.95059 | -44.19021 | 7122 ft | 232 kts | 19° |
| 2026-04-22 02:15 | -19.93556 | -44.18461 | 7129 ft | 232 kts | 19° |
| 2026-04-22 02:15 | -19.92037 | -44.17895 | 7128 ft | 232 kts | 19° |
| 2026-04-22 02:15 | -19.90519 | -44.17330 | 7129 ft | 232 kts | 19° |
| 2026-04-22 02:15 | -19.88979 | -44.16757 | 7012 ft | 236 kts | 19° |
| 2026-04-22 02:16 | -19.87426 | -44.16180 | 6978 ft | 235 kts | 19° |
| 2026-04-22 02:16 | -19.85882 | -44.15625 | 6982 ft | 233 kts | 18° |
| 2026-04-22 02:16 | -19.84347 | -44.15080 | 6985 ft | 232 kts | 19° |
| 2026-04-22 02:16 | -19.82816 | -44.14488 | 6753 ft | 240 kts | 26° |
| 2026-04-22 02:17 | -19.81451 | -44.13420 | 6322 ft | 244 kts | 47° |
| 2026-04-22 02:17 | -19.80542 | -44.11994 | 5870 ft | 225 kts | 65° |
| 2026-04-22 02:17 | -19.80148 | -44.10517 | 5675 ft | 184 kts | 83° |
| 2026-04-22 02:17 | -19.80128 | -44.09296 | 5686 ft | 157 kts | 95° |
| 2026-04-22 02:18 | -19.80339 | -44.08209 | 5685 ft | 146 kts | 107° |
| 2026-04-22 02:18 | -19.80691 | -44.07225 | 5688 ft | 140 kts | 111° |
| 2026-04-22 02:18 | -19.81038 | -44.06255 | 5426 ft | 137 kts | 110° |
| 2026-04-22 02:18 | -19.81339 | -44.05421 | 5008 ft | 109 kts | 109° |
| 2026-04-22 02:19 | -19.81600 | -44.04696 | 4561 ft | 102 kts | 109° |
| 2026-04-22 02:19 | -19.81843 | -44.04015 | 4511 ft | 95 kts | 109° |
| 2026-04-22 02:19 | -19.82072 | -44.03371 | 4506 ft | 93 kts | 109° |
| 2026-04-22 02:19 | -19.82306 | -44.02703 | 4504 ft | 99 kts | 109° |
| 2026-04-22 02:20 | -19.82576 | -44.02006 | 4433 ft | 106 kts | 111° |
| 2026-04-22 02:20 | -19.82840 | -44.01283 | 4160 ft | 103 kts | 110° |
| 2026-04-22 02:20 | -19.83100 | -44.00564 | 3905 ft | 104 kts | 110° |
| 2026-04-22 02:20 | -19.83356 | -43.99835 | 3663 ft | 105 kts | 111° |
| 2026-04-22 02:21 | -19.83600 | -43.99149 | 3501 ft | 98 kts | 112° |
| 2026-04-22 02:21 | -19.83862 | -43.98467 | 3304 ft | 101 kts | 111° |
| 2026-04-22 02:21 | -19.84109 | -43.97759 | 3090 ft | 102 kts | 114° |
| 2026-04-22 02:21 | -19.84377 | -43.97066 | 2815 ft | 105 kts | 109° |
| 2026-04-22 02:22 | -19.84589 | -43.96377 | 2677 ft | 97 kts | 112° |
| 2026-04-22 02:22 | -19.84819 | -43.95741 | 2588 ft | 79 kts | 111° |
| 2026-04-22 02:22 | -19.84931 | -43.95429 | 2588 ft | 1 kts | 101° |
| 2026-04-22 02:22 | -19.84946 | -43.95381 | 2585 ft | 15 kts | 110° |
| 2026-04-22 02:23 | -19.84991 | -43.95249 | 2591 ft | 20 kts | 109° |
| 2026-04-22 02:23 | -19.85041 | -43.95097 | 2592 ft | 23 kts | 97° |
| 2026-04-22 02:23 | -19.84947 | -43.95021 | 2593 ft | 14 kts | 18° |
| 2026-04-22 02:23 | -19.84873 | -43.95032 | 2595 ft | 13 kts | 314° |
| 2026-04-22 02:24 | -19.84852 | -43.95032 | 2595 ft | 0 kts | 160° |
| 2026-04-22 02:26 | -19.84852 | -43.95031 | 2595 ft | 1 kts | 160° |
| 2026-04-22 02:26 | -19.84895 | -43.95015 | 2594 ft | 8 kts | 173° |
| 2026-04-22 02:27 | -19.84987 | -43.95037 | 2592 ft | 19 kts | 201° |
| 2026-04-22 02:27 | -19.85106 | -43.95097 | 2592 ft | 15 kts | 247° |
| 2026-04-22 02:27 | -19.85179 | -43.95103 | 2585 ft | 15 kts | 172° |
| 2026-04-22 02:27 | -19.85253 | -43.95029 | 2591 ft | 18 kts | 113° |
| 2026-04-22 02:28 | -19.85298 | -43.94886 | 2589 ft | 23 kts | 108° |
| 2026-04-22 02:28 | -19.85355 | -43.94720 | 2585 ft | 24 kts | 110° |
| 2026-04-22 02:28 | -19.85424 | -43.94603 | 2590 ft | 3 kts | 237° |
| 2026-04-22 02:28 | -19.85419 | -43.94618 | 2585 ft | 0 kts | 359° |
| 2026-04-22 02:30 | -19.85418 | -43.94619 | 2533 ft | 0 kts | 0° |
| 2026-04-22 02:31 | -19.85389 | -43.94627 | 2590 ft | 24 kts | 110° |
| 2026-04-22 02:31 | -19.85334 | -43.94779 | 2586 ft | 24 kts | 110° |
| 2026-04-22 02:31 | -19.85396 | -43.94611 | 2585 ft | 24 kts | 120° |
| 2026-04-22 02:32 | -19.85424 | -43.94616 | 2529 ft | 7 kts | 308° |
| 2026-04-22 02:32 | -19.85419 | -43.94618 | 2533 ft | 0 kts | 359° |
| 2026-04-22 02:32 | -19.85382 | -43.94647 | 2590 ft | 24 kts | 111° |
| 2026-04-22 02:32 | -19.85425 | -43.94607 | 2580 ft | 4 kts | 258° |
| 2026-04-22 02:33 | -19.85419 | -43.94618 | 2533 ft | 0 kts | 359° |
| 2026-04-22 02:39 | -19.85420 | -43.94618 | 2590 ft | 0 kts | 359° |